METAR Data
IDs: Format: Raw Decoded Include TAF

Data at: 2206 UTC 01 Dec 2021

METAR for:KLHQ (Lancaster/Fairfield, OH, US)
Text:KLHQ 012153Z AUTO 14008KT 9SM FEW008 BKN070 OVC120 07/06 A2992 RMK AO2 SLP139 T00670056
Temperature: 6.7°C ( 44°F)
Dewpoint: 5.6°C ( 42°F) [RH = 93%]
Pressure (altimeter):29.92 inches Hg (1013.3 mb) [Sea level pressure: 1013.9 mb]
Winds:from the SE (140 degrees) at 9 MPH (8 knots; 4.1 m/s)
Visibility: 9 sm ( 14 km)
Ceiling:7000 feet AGL
Clouds: few clouds at 800 feet AGL, broken clouds at 7000 feet AGL, overcast cloud deck at 12000 feet AGL
QC Flag:automated observation with no human augmentation